createdAt,value
2023-03-21T00:01:29.542Z,8.58
2023-03-21T00:03:34.431Z,8.58
2023-03-21T00:05:40.406Z,8.59
2023-03-21T00:07:43.065Z,8.57
2023-03-21T00:09:45.057Z,8.58
2023-03-21T00:11:49.128Z,8.58
2023-03-21T00:13:50.829Z,8.59
2023-03-21T00:16:10.278Z,8.58
2023-03-21T00:18:15.889Z,8.58
2023-03-21T00:20:19.337Z,8.58
2023-03-21T00:22:22.018Z,8.57
2023-03-21T00:24:23.607Z,8.56
2023-03-21T00:26:25.270Z,8.56
2023-03-21T00:28:27.914Z,8.57
2023-03-21T00:30:29.729Z,8.56
2023-03-21T00:32:33.973Z,8.56
2023-03-21T00:34:43.042Z,8.57
2023-03-21T00:36:52.113Z,8.57
2023-03-21T00:38:54.419Z,8.55
2023-03-21T00:40:58.204Z,8.55
2023-03-21T00:43:02.041Z,8.55
2023-03-21T00:45:04.573Z,8.56
2023-03-21T00:47:09.498Z,8.56
2023-03-21T00:49:11.332Z,8.56
2023-03-21T00:51:15.639Z,8.56
2023-03-21T00:53:18.875Z,8.55
2023-03-21T00:55:20.885Z,8.56
2023-03-21T00:57:37.536Z,8.56
2023-03-21T00:59:40.938Z,8.56
2023-03-21T01:01:42.660Z,8.56
2023-03-21T01:03:44.738Z,8.56
2023-03-21T01:05:49.064Z,8.57
2023-03-21T01:07:52.640Z,8.56
2023-03-21T01:09:55.730Z,8.58
2023-03-21T01:11:57.383Z,8.57
2023-03-21T01:14:14.794Z,8.57
2023-03-21T01:16:20.711Z,8.57
2023-03-21T01:18:25.340Z,8.56
2023-03-21T01:20:27.726Z,8.55
2023-03-21T01:22:29.548Z,8.55
2023-03-21T01:24:35.670Z,8.55
2023-03-21T01:26:40.600Z,8.55
2023-03-21T01:28:44.182Z,8.54
2023-03-21T01:30:46.500Z,8.53
2023-03-21T01:32:48.217Z,8.53
2023-03-21T01:34:50.051Z,8.53
2023-03-21T01:36:51.837Z,8.53
2023-03-21T01:38:53.971Z,8.53
2023-03-21T01:40:56.232Z,8.53
2023-03-21T01:42:59.227Z,8.53
2023-03-21T01:45:04.902Z,8.53
2023-03-21T01:47:12.575Z,8.54
2023-03-21T01:49:19.169Z,8.54
2023-03-21T01:51:22.794Z,8.53
2023-03-21T01:53:28.528Z,8.55
2023-03-21T01:55:31.307Z,8.53
2023-03-21T01:57:47.248Z,8.55
2023-03-21T01:59:55.540Z,8.56
2023-03-21T02:02:01.291Z,8.56
2023-03-21T02:04:04.940Z,8.57
2023-03-21T02:06:12.306Z,8.58
2023-03-21T02:08:13.927Z,8.59
2023-03-21T02:10:16.900Z,8.60
2023-03-21T02:12:19.375Z,8.61
2023-03-21T02:14:28.889Z,8.62
2023-03-21T02:16:46.052Z,8.64
2023-03-21T02:18:55.254Z,8.65
2023-03-21T02:21:29.169Z,8.68
2023-03-21T02:24:05.525Z,8.69
2023-03-21T02:26:43.912Z,8.69
2023-03-21T02:28:49.882Z,8.65
2023-03-21T02:31:14.841Z,8.69
2023-03-21T02:33:46.964Z,8.69
2023-03-21T02:36:13.882Z,8.69
2023-03-21T02:38:24.651Z,8.69
2023-03-21T02:40:35.003Z,8.69
2023-03-21T02:42:59.490Z,8.69
2023-03-21T02:45:08.853Z,8.70
2023-03-21T02:47:18.551Z,8.70
2023-03-21T02:49:24.863Z,8.70
2023-03-21T02:51:30.397Z,8.71
2023-03-21T02:53:37.007Z,8.71
2023-03-21T02:55:42.275Z,8.73
2023-03-21T02:57:46.707Z,8.74
2023-03-21T02:59:56.881Z,8.74
2023-03-21T03:02:00.417Z,8.75
2023-03-21T03:04:02.285Z,8.75
2023-03-21T03:06:10.211Z,8.75
2023-03-21T03:08:36.125Z,8.76
2023-03-21T03:11:06.441Z,8.78
2023-03-21T03:13:19.967Z,8.76
2023-03-21T03:15:29.042Z,8.75
2023-03-21T03:17:43.852Z,8.76
2023-03-21T03:20:07.114Z,8.76
2023-03-21T03:24:28.132Z,8.75
2023-03-21T03:26:37.421Z,8.77
2023-03-21T03:28:48.203Z,8.77
2023-03-21T03:31:07.371Z,8.77
2023-03-21T03:33:12.019Z,8.79
2023-03-21T03:35:18.672Z,8.79
2023-03-21T03:37:23.828Z,8.80
2023-03-21T03:39:34.430Z,8.80
2023-03-21T03:44:06.091Z,8.83
2023-03-21T03:46:15.440Z,8.83
2023-03-21T03:48:24.423Z,8.85
2023-03-21T03:50:30.951Z,8.85
2023-03-21T03:52:42.074Z,8.84
2023-03-21T03:54:50.847Z,8.85
2023-03-21T03:56:54.902Z,8.85
2023-03-21T03:58:57.788Z,8.85
2023-03-21T04:00:59.401Z,8.85
2023-03-21T04:03:02.630Z,8.86
2023-03-21T04:05:05.759Z,8.86
2023-03-21T04:07:08.146Z,8.87
2023-03-21T04:09:20.645Z,8.88
2023-03-21T04:11:25.052Z,8.88
2023-03-21T04:15:32.488Z,8.89
2023-03-21T04:17:35.464Z,8.90
2023-03-21T04:19:36.984Z,8.90
2023-03-21T04:21:39.354Z,8.91
2023-03-21T04:23:42.333Z,8.92
2023-03-21T04:25:56.028Z,8.92
2023-03-21T04:27:58.357Z,8.93
2023-03-21T04:30:03.781Z,8.94
2023-03-21T04:32:06.023Z,8.93
2023-03-21T04:34:08.046Z,8.93
2023-03-21T04:36:11.144Z,8.93
2023-03-21T04:38:12.999Z,8.94
2023-03-21T04:40:15.572Z,8.94
2023-03-21T04:42:18.901Z,8.94
2023-03-21T04:44:20.932Z,8.94
2023-03-21T04:46:24.550Z,8.94
2023-03-21T04:48:26.369Z,8.94
2023-03-21T04:50:28.238Z,8.95
2023-03-21T04:52:30.128Z,8.95
2023-03-21T04:54:31.890Z,8.94
2023-03-21T04:56:36.199Z,8.94
2023-03-21T04:58:39.480Z,8.94
2023-03-21T05:00:41.091Z,8.93
2023-03-21T05:02:44.891Z,8.93
2023-03-21T05:04:46.685Z,8.92
2023-03-21T05:06:48.335Z,8.92
2023-03-21T05:08:50.165Z,8.92
2023-03-21T05:10:51.920Z,8.92
2023-03-21T05:12:53.513Z,8.93
2023-03-21T05:14:55.412Z,8.93
2023-03-21T05:16:57.452Z,8.92
2023-03-21T05:19:01.316Z,8.93
2023-03-21T05:21:03.620Z,8.94
2023-03-21T05:23:05.410Z,8.93
2023-03-21T05:25:09.034Z,8.94
2023-03-21T05:27:10.787Z,8.93
2023-03-21T05:29:12.334Z,8.93
2023-03-21T05:31:16.554Z,8.93
2023-03-21T05:33:18.201Z,8.94
2023-03-21T05:35:21.331Z,8.94
2023-03-21T05:37:23.466Z,8.93
2023-03-21T05:39:25.049Z,8.94
2023-03-21T05:41:26.650Z,8.94
2023-03-21T05:43:28.639Z,8.94
2023-03-21T05:45:30.671Z,8.95
2023-03-21T05:47:32.751Z,8.95
2023-03-21T05:49:34.583Z,8.95
2023-03-21T05:51:37.873Z,8.95
2023-03-21T05:53:39.733Z,8.95
2023-03-21T05:55:41.498Z,8.93
2023-03-21T05:57:43.868Z,8.94
2023-03-21T05:59:46.179Z,8.93
2023-03-21T06:01:48.004Z,8.93
2023-03-21T06:03:49.846Z,8.93
2023-03-21T06:05:51.534Z,8.93
2023-03-21T06:07:54.753Z,8.94
2023-03-21T06:09:59.336Z,8.94
2023-03-21T06:12:02.918Z,8.92
2023-03-21T06:14:04.848Z,8.93
2023-03-21T06:16:07.398Z,8.94
2023-03-21T06:18:09.250Z,8.95
2023-03-21T06:20:11.773Z,8.94
2023-03-21T06:22:13.494Z,8.94
2023-03-21T06:24:18.280Z,8.95
2023-03-21T06:26:19.970Z,8.97
2023-03-21T06:28:21.933Z,8.97
2023-03-21T06:30:23.984Z,8.98
2023-03-21T06:32:26.361Z,9.00
2023-03-21T06:34:29.211Z,9.01
2023-03-21T06:36:30.896Z,9.02
2023-03-21T06:38:32.552Z,9.03
2023-03-21T06:40:35.887Z,9.05
2023-03-21T06:42:38.755Z,9.07
2023-03-21T06:44:41.084Z,9.08
2023-03-21T06:46:43.203Z,9.09
2023-03-21T06:48:45.002Z,9.11
2023-03-21T06:50:49.015Z,9.14
2023-03-21T06:52:50.839Z,9.15
2023-03-21T06:54:52.450Z,9.17
2023-03-21T06:56:55.478Z,9.19
2023-03-21T06:58:57.072Z,9.22
2023-03-21T07:00:59.269Z,9.23
2023-03-21T07:03:00.901Z,9.25
2023-03-21T07:05:04.664Z,9.26
2023-03-21T07:07:06.839Z,9.29
2023-03-21T07:09:08.474Z,9.32
2023-03-21T07:11:10.539Z,9.34
2023-03-21T07:13:14.249Z,9.36
2023-03-21T07:15:15.948Z,9.38
2023-03-21T07:17:17.548Z,9.40
2023-03-21T07:19:19.164Z,9.43
2023-03-21T07:21:20.817Z,9.44
2023-03-21T07:23:24.469Z,9.46
2023-03-21T07:25:26.478Z,9.49
2023-03-21T07:27:28.361Z,9.52
2023-03-21T07:29:31.596Z,9.54
2023-03-21T07:31:33.241Z,9.56
2023-03-21T07:33:35.099Z,9.60
2023-03-21T07:35:37.028Z,9.64
2023-03-21T07:37:39.847Z,9.67
2023-03-21T07:39:41.411Z,9.70
2023-03-21T07:41:42.994Z,9.73
2023-03-21T07:43:44.849Z,9.75
2023-03-21T07:45:47.929Z,9.77
2023-03-21T07:47:49.558Z,9.81
2023-03-21T07:49:51.434Z,9.83
2023-03-21T07:51:53.402Z,9.87
2023-03-21T07:53:54.999Z,9.89
2023-03-21T07:55:57.100Z,9.92
2023-03-21T07:58:00.105Z,9.95
2023-03-21T08:00:01.732Z,9.99
2023-03-21T08:02:07.767Z,10.01
2023-03-21T08:04:09.753Z,10.04
2023-03-21T08:06:11.842Z,10.07
2023-03-21T08:08:15.278Z,10.11
2023-03-21T08:10:18.343Z,10.14
2023-03-21T08:12:20.148Z,10.17
2023-03-21T08:14:22.215Z,10.20
2023-03-21T08:16:24.096Z,10.23
2023-03-21T08:18:27.589Z,10.27
2023-03-21T08:20:32.898Z,10.30
2023-03-21T08:22:34.923Z,10.32
2023-03-21T08:24:36.938Z,10.35
2023-03-21T08:26:39.018Z,10.38
2023-03-21T08:28:40.700Z,10.40
2023-03-21T08:30:42.664Z,10.43
2023-03-21T08:32:44.960Z,10.45
2023-03-21T08:34:48.155Z,10.48
2023-03-21T08:36:49.990Z,10.52
2023-03-21T08:38:52.477Z,10.54
2023-03-21T08:40:54.334Z,10.58
2023-03-21T08:42:56.195Z,10.61
2023-03-21T08:44:59.953Z,10.65
2023-03-21T08:47:01.593Z,10.68
2023-03-21T08:49:03.468Z,10.71
2023-03-21T08:51:07.230Z,10.74
2023-03-21T08:53:11.013Z,10.79
2023-03-21T08:55:13.858Z,10.82
2023-03-21T08:57:15.854Z,10.87
2023-03-21T08:59:17.678Z,10.92
2023-03-21T09:01:19.507Z,10.95
2023-03-21T09:03:23.138Z,10.99
2023-03-21T09:05:25.626Z,11.02
2023-03-21T09:07:31.680Z,11.07
2023-03-21T09:09:33.778Z,11.11
2023-03-21T09:11:35.775Z,11.15
2023-03-21T09:13:37.606Z,11.19
2023-03-21T09:15:39.768Z,11.21
2023-03-21T09:17:41.864Z,11.25
2023-03-21T09:19:43.497Z,11.29
2023-03-21T09:21:46.100Z,11.30
2023-03-21T09:23:52.163Z,11.34
2023-03-21T09:25:55.848Z,11.37
2023-03-21T09:27:57.431Z,11.40
2023-03-21T09:29:59.047Z,11.44
2023-03-21T09:32:00.990Z,11.47
2023-03-21T09:34:02.918Z,11.53
2023-03-21T09:36:05.651Z,11.57
2023-03-21T09:38:07.647Z,11.58
2023-03-21T09:40:17.224Z,11.63
2023-03-21T09:42:33.620Z,11.68
2023-03-21T09:44:49.138Z,11.84
2023-03-21T09:47:01.093Z,11.99
2023-03-21T09:49:06.961Z,12.16
2023-03-21T09:51:14.079Z,12.25
2023-03-21T09:53:25.300Z,12.37
2023-03-21T09:55:31.357Z,12.56
2023-03-21T09:57:38.478Z,12.60
2023-03-21T09:59:41.156Z,12.68
2023-03-21T10:01:46.512Z,12.75
2023-03-21T10:03:49.383Z,12.85
2023-03-21T10:05:52.485Z,12.95
2023-03-21T10:07:58.593Z,13.07
2023-03-21T10:10:03.388Z,13.14
2023-03-21T10:12:14.734Z,13.22
2023-03-21T10:14:21.592Z,13.28
2023-03-21T10:16:29.307Z,13.32
2023-03-21T10:18:35.104Z,13.36
2023-03-21T10:20:38.891Z,13.38
2023-03-21T10:22:40.857Z,13.44
2023-03-21T10:24:45.288Z,13.45
2023-03-21T10:26:48.142Z,13.47
2023-03-21T10:28:53.392Z,13.49
2023-03-21T10:30:58.845Z,13.51
2023-03-21T10:33:05.839Z,13.51
2023-03-21T10:35:13.876Z,13.50
2023-03-21T10:37:16.357Z,13.49
2023-03-21T10:39:25.176Z,13.47
2023-03-21T10:41:26.976Z,13.48
2023-03-21T10:43:35.934Z,13.48
2023-03-21T10:45:39.252Z,13.51
2023-03-21T10:47:44.804Z,13.53
2023-03-21T10:50:06.944Z,13.54
2023-03-21T10:52:19.772Z,13.58
2023-03-21T10:54:25.482Z,13.58
2023-03-21T10:56:29.213Z,13.59
2023-03-21T10:58:35.604Z,13.60
2023-03-21T11:00:41.461Z,13.59
2023-03-21T11:02:47.875Z,13.59
2023-03-21T11:04:52.296Z,13.56
2023-03-21T11:06:56.377Z,13.55
2023-03-21T11:09:02.893Z,13.56
2023-03-21T11:11:07.130Z,13.53
2023-03-21T11:13:18.875Z,13.56
2023-03-21T11:15:29.319Z,13.55
2023-03-21T11:17:35.679Z,13.54
2023-03-21T11:19:37.622Z,13.54
2023-03-21T11:21:39.805Z,13.51
2023-03-21T11:23:45.543Z,13.51
2023-03-21T11:25:51.329Z,13.50
2023-03-21T11:27:55.365Z,13.50
2023-03-21T11:29:58.860Z,13.51
2023-03-21T11:32:09.016Z,13.51
2023-03-21T11:34:25.697Z,13.52
2023-03-21T11:36:32.973Z,13.51
2023-03-21T11:38:38.771Z,13.51
2023-03-21T11:40:54.190Z,13.54
2023-03-21T11:42:58.020Z,13.55
2023-03-21T11:45:11.047Z,13.58
2023-03-21T11:47:12.719Z,13.59
2023-03-21T11:49:15.710Z,13.61
2023-03-21T11:51:26.920Z,13.62
2023-03-21T11:53:37.897Z,13.65
2023-03-21T11:55:51.095Z,13.65
2023-03-21T11:58:13.900Z,13.65
2023-03-21T12:00:22.341Z,13.67
2023-03-21T12:02:43.661Z,13.68
2023-03-21T12:04:53.195Z,13.67
2023-03-21T12:07:02.764Z,13.64
2023-03-21T12:09:24.143Z,13.63
2023-03-21T12:11:32.593Z,13.63
2023-03-21T12:13:48.061Z,13.61
2023-03-21T12:16:01.365Z,13.59
2023-03-21T12:18:13.989Z,13.58
2023-03-21T12:20:30.479Z,13.57
2023-03-21T12:22:41.343Z,13.57
2023-03-21T12:24:50.843Z,13.57
2023-03-21T12:27:00.649Z,13.56
2023-03-21T12:29:19.713Z,13.56
2023-03-21T12:31:28.938Z,13.54
2023-03-21T12:33:45.070Z,13.55
2023-03-21T12:36:12.437Z,13.58
2023-03-21T12:38:18.267Z,13.54
2023-03-21T12:40:37.941Z,13.55
2023-03-21T12:42:58.492Z,13.56
2023-03-21T12:45:15.268Z,13.52
2023-03-21T12:47:24.696Z,13.51
2023-03-21T12:49:33.588Z,13.48
2023-03-21T12:51:41.483Z,13.48
2023-03-21T12:53:54.875Z,13.46
2023-03-21T12:56:01.435Z,13.42
2023-03-21T12:58:06.967Z,13.40
2023-03-21T13:00:16.158Z,13.38
2023-03-21T13:02:24.204Z,13.37
2023-03-21T13:04:39.141Z,13.35
2023-03-21T13:06:44.767Z,13.34
2023-03-21T13:08:53.032Z,13.30
2023-03-21T13:10:56.595Z,13.28
2023-03-21T13:13:13.427Z,13.27
2023-03-21T13:15:33.144Z,13.26
2023-03-21T13:17:41.697Z,13.25
2023-03-21T13:19:51.405Z,13.24
2023-03-21T13:22:06.142Z,13.22
2023-03-21T13:24:23.520Z,13.21
2023-03-21T13:26:33.514Z,13.18
2023-03-21T13:28:37.059Z,13.16
2023-03-21T13:30:39.215Z,13.16
2023-03-21T13:32:42.988Z,13.14
2023-03-21T13:34:45.266Z,13.15
2023-03-21T13:36:52.054Z,13.14
2023-03-21T13:39:00.734Z,13.13
2023-03-21T13:41:07.607Z,13.13
2023-03-21T13:43:32.705Z,13.15
2023-03-21T13:45:46.289Z,13.15
2023-03-21T13:47:54.803Z,13.14
2023-03-21T13:50:27.122Z,13.16
2023-03-21T13:52:29.237Z,13.14
2023-03-21T13:54:52.338Z,13.15
2023-03-21T13:56:56.616Z,13.14
2023-03-21T13:59:00.922Z,13.12
2023-03-21T14:01:16.803Z,13.12
2023-03-21T14:03:18.827Z,13.12
2023-03-21T14:05:25.247Z,13.11
2023-03-21T14:07:30.467Z,13.12
2023-03-21T14:09:36.794Z,13.13
2023-03-21T14:11:44.538Z,13.15
2023-03-21T14:13:51.537Z,13.14
2023-03-21T14:15:56.739Z,13.13
2023-03-21T14:18:06.454Z,13.15
2023-03-21T14:20:22.670Z,13.14
2023-03-21T14:22:24.517Z,13.14
2023-03-21T14:24:26.064Z,13.15
2023-03-21T14:26:30.483Z,13.14
2023-03-21T14:28:33.621Z,13.14
2023-03-21T14:30:39.255Z,13.14
2023-03-21T14:32:41.728Z,13.16
2023-03-21T14:34:45.644Z,13.13
2023-03-21T14:36:55.432Z,13.12
2023-03-21T14:39:06.672Z,13.12
2023-03-21T14:41:22.952Z,13.11
2023-03-21T14:43:26.067Z,13.08
2023-03-21T14:45:30.031Z,13.08
2023-03-21T14:47:31.816Z,13.07
2023-03-21T14:49:36.526Z,13.07
2023-03-21T14:51:38.880Z,13.07
2023-03-21T14:53:43.092Z,13.07
2023-03-21T14:55:48.119Z,13.07
2023-03-21T14:57:50.024Z,13.08
2023-03-21T14:59:55.217Z,13.05
2023-03-21T15:01:59.942Z,13.06
2023-03-21T15:04:06.446Z,13.04
2023-03-21T15:06:13.840Z,13.04
2023-03-21T15:08:20.240Z,13.02
2023-03-21T15:10:22.222Z,13.02
2023-03-21T15:12:24.275Z,12.99
2023-03-21T15:14:30.320Z,13.01
2023-03-21T15:16:32.313Z,12.98
2023-03-21T15:18:40.594Z,12.99
2023-03-21T15:20:48.335Z,12.98
2023-03-21T15:22:53.879Z,12.97
2023-03-21T15:25:00.808Z,12.96
2023-03-21T15:27:05.723Z,12.94
2023-03-21T15:29:07.700Z,12.95
2023-03-21T15:31:19.316Z,12.94
2023-03-21T15:33:25.017Z,12.93
2023-03-21T15:35:33.924Z,12.92
2023-03-21T15:37:37.488Z,12.91
2023-03-21T15:39:41.504Z,12.89
2023-03-21T15:41:57.878Z,12.89
2023-03-21T15:44:13.421Z,12.86
2023-03-21T15:46:17.381Z,12.84
2023-03-21T15:48:25.869Z,12.83
2023-03-21T15:50:35.470Z,12.84
2023-03-21T15:52:38.219Z,12.82
2023-03-21T15:54:44.719Z,12.82
2023-03-21T15:56:48.808Z,12.80
2023-03-21T15:58:52.780Z,12.79
2023-03-21T16:00:57.129Z,12.78
2023-03-21T16:03:04.556Z,12.76
2023-03-21T16:05:23.591Z,12.77
2023-03-21T16:07:27.168Z,12.74
2023-03-21T16:09:39.370Z,12.75
2023-03-21T16:11:43.665Z,12.72
2023-03-21T16:13:46.262Z,12.70
2023-03-21T16:15:47.915Z,12.67
2023-03-21T16:17:51.786Z,12.65
2023-03-21T16:19:54.832Z,12.62
2023-03-21T16:21:56.468Z,12.60
2023-03-21T16:23:59.868Z,12.56
2023-03-21T16:26:03.232Z,12.56
2023-03-21T16:28:05.203Z,12.54
2023-03-21T16:30:10.100Z,12.52
2023-03-21T16:32:15.276Z,12.51
2023-03-21T16:34:17.312Z,12.48
2023-03-21T16:36:22.749Z,12.48
2023-03-21T16:38:24.404Z,12.47
2023-03-21T16:40:30.361Z,12.45
2023-03-21T16:42:34.670Z,12.42
2023-03-21T16:44:36.321Z,12.40
2023-03-21T16:46:39.423Z,12.39
2023-03-21T16:48:43.350Z,12.37
2023-03-21T16:50:47.371Z,12.33
2023-03-21T16:52:50.197Z,12.32
2023-03-21T16:54:51.876Z,12.30
2023-03-21T16:56:56.738Z,12.28
2023-03-21T16:58:58.675Z,12.25
2023-03-21T17:01:00.517Z,12.22
2023-03-21T17:03:08.897Z,12.18
2023-03-21T17:05:10.498Z,12.16
2023-03-21T17:07:13.732Z,12.13
2023-03-21T17:09:18.031Z,12.10
2023-03-21T17:11:22.061Z,12.08
2023-03-21T17:13:25.360Z,12.06
2023-03-21T17:15:27.007Z,12.03
2023-03-21T17:17:28.873Z,12.01
2023-03-21T17:19:31.022Z,11.98
2023-03-21T17:21:32.650Z,11.98
2023-03-21T17:23:34.288Z,11.95
2023-03-21T17:25:37.516Z,11.93
2023-03-21T17:27:40.489Z,11.93
2023-03-21T17:29:44.031Z,11.92
2023-03-21T17:31:45.591Z,11.91
2023-03-21T17:33:49.717Z,11.90
2023-03-21T17:35:51.619Z,11.88
2023-03-21T17:37:54.627Z,11.88
2023-03-21T17:39:56.228Z,11.87
2023-03-21T17:41:57.799Z,11.88
2023-03-21T17:43:59.398Z,11.86
2023-03-21T17:46:03.092Z,11.85
2023-03-21T17:48:05.211Z,11.84
2023-03-21T17:50:18.368Z,11.84
2023-03-21T17:52:20.180Z,11.82
2023-03-21T17:54:21.814Z,11.80
2023-03-21T17:56:26.122Z,11.78
2023-03-21T17:58:27.736Z,11.77
2023-03-21T18:00:30.661Z,11.76
2023-03-21T18:02:34.077Z,11.74
2023-03-21T18:04:37.602Z,11.73
2023-03-21T18:06:40.223Z,11.73
2023-03-21T18:08:41.830Z,11.71
2023-03-21T18:10:44.247Z,11.71
2023-03-21T18:12:46.114Z,11.67
2023-03-21T18:14:49.495Z,11.67
2023-03-21T18:16:51.347Z,11.66
2023-03-21T18:18:55.556Z,11.64
2023-03-21T18:20:58.558Z,11.62
2023-03-21T18:23:00.622Z,11.61
2023-03-21T18:25:04.929Z,11.60
2023-03-21T18:27:06.777Z,11.59
2023-03-21T18:31:33.651Z,11.55
2023-03-21T18:33:36.605Z,11.53
2023-03-21T18:35:40.163Z,11.53
2023-03-21T18:37:43.861Z,11.51
2023-03-21T18:39:45.930Z,11.50
2023-03-21T18:41:47.806Z,11.49
2023-03-21T18:44:17.613Z,11.49
2023-03-21T18:46:11.609Z,11.48
2023-03-21T18:48:13.748Z,11.47
2023-03-21T18:50:15.647Z,11.45
2023-03-21T18:52:19.206Z,11.44
2023-03-21T18:54:21.104Z,11.43
2023-03-21T18:57:06.362Z,11.42
2023-03-21T18:58:45.164Z,11.40
2023-03-21T19:00:47.265Z,11.40
2023-03-21T19:02:51.155Z,11.40
2023-03-21T19:04:53.654Z,11.38
2023-03-21T19:06:55.957Z,11.39
2023-03-21T19:08:59.679Z,11.38
2023-03-21T19:11:05.930Z,11.38
2023-03-21T19:13:08.415Z,11.37
2023-03-21T19:15:10.724Z,11.35
2023-03-21T19:19:34.466Z,11.34
2023-03-21T19:21:36.739Z,11.33
2023-03-21T19:24:07.939Z,11.32
2023-03-21T19:26:01.679Z,11.32
2023-03-21T19:28:03.949Z,11.32
2023-03-21T19:30:16.499Z,11.31
2023-03-21T19:32:18.278Z,11.31
2023-03-21T19:34:20.154Z,11.30
2023-03-21T19:36:23.321Z,11.29
2023-03-21T19:38:26.352Z,11.30
2023-03-21T19:40:28.347Z,11.29
2023-03-21T19:42:34.099Z,11.28
2023-03-21T19:44:36.306Z,11.28
2023-03-21T19:46:40.517Z,11.27
2023-03-21T19:48:42.621Z,11.26
2023-03-21T19:51:13.414Z,11.25
2023-03-21T19:53:07.122Z,11.23
2023-03-21T19:55:09.403Z,11.24
2023-03-21T19:57:11.516Z,11.24
2023-03-21T19:59:14.786Z,11.23
2023-03-21T20:01:17.333Z,11.23
2023-03-21T20:03:19.344Z,11.23
2023-03-21T20:05:20.999Z,11.22
2023-03-21T20:07:23.811Z,11.22
2023-03-21T20:09:50.475Z,11.20
2023-03-21T20:11:47.382Z,11.21
2023-03-21T20:13:49.135Z,11.20
2023-03-21T20:15:55.459Z,11.19
2023-03-21T20:17:58.517Z,11.20
2023-03-21T20:20:01.398Z,11.19
2023-03-21T20:22:06.072Z,11.19
2023-03-21T20:24:09.338Z,11.19
2023-03-21T20:26:12.039Z,11.18
2023-03-21T20:28:20.074Z,11.19
2023-03-21T20:30:26.475Z,11.18
2023-03-21T20:32:29.464Z,11.19
2023-03-21T20:34:31.723Z,11.19
2023-03-21T20:36:40.820Z,11.19
2023-03-21T20:38:45.549Z,11.17
2023-03-21T20:40:49.222Z,11.17
2023-03-21T20:42:51.478Z,11.18
2023-03-21T20:44:58.729Z,11.16
2023-03-21T20:47:01.905Z,11.16
2023-03-21T20:49:05.328Z,11.16
2023-03-21T20:52:00.239Z,11.14
2023-03-21T20:53:32.452Z,11.15
2023-03-21T20:55:34.043Z,11.13
2023-03-21T20:57:38.630Z,11.13
2023-03-21T20:59:40.643Z,11.12
2023-03-21T21:01:42.845Z,11.13
2023-03-21T21:03:44.740Z,11.12
2023-03-21T21:05:47.757Z,11.11
2023-03-21T21:07:49.810Z,11.10
2023-03-21T21:09:51.643Z,11.10
2023-03-21T21:12:06.562Z,11.09
2023-03-21T21:14:08.877Z,11.10
2023-03-21T21:16:11.172Z,11.09
2023-03-21T21:18:13.055Z,11.09
2023-03-21T21:20:15.136Z,11.08
2023-03-21T21:22:18.100Z,11.08
2023-03-21T21:24:19.982Z,11.08
2023-03-21T21:26:21.858Z,11.08
2023-03-21T21:28:24.901Z,11.08
2023-03-21T21:30:26.725Z,11.09
2023-03-21T21:32:28.972Z,11.08
2023-03-21T21:34:31.043Z,11.07
2023-03-21T21:36:32.870Z,11.07
2023-03-21T21:38:36.593Z,11.06
2023-03-21T21:40:38.408Z,11.06
2023-03-21T21:42:41.372Z,11.06
2023-03-21T21:44:43.076Z,11.05
2023-03-21T21:46:44.778Z,11.04
2023-03-21T21:48:46.422Z,11.03
2023-03-21T21:50:49.965Z,11.02
2023-03-21T21:52:51.813Z,11.01
2023-03-21T21:54:55.375Z,11.00
2023-03-21T21:56:57.181Z,11.00
2023-03-21T21:59:00.207Z,10.99
2023-03-21T22:01:03.619Z,10.99
2023-03-21T22:03:05.950Z,10.98
2023-03-21T22:05:09.105Z,10.97
2023-03-21T22:07:11.173Z,10.96
2023-03-21T22:09:12.968Z,10.95
2023-03-21T22:11:16.061Z,10.95
2023-03-21T22:13:17.895Z,10.95
2023-03-21T22:15:20.058Z,10.95
2023-03-21T22:17:21.678Z,10.95
2023-03-21T22:19:23.848Z,10.94
2023-03-21T22:21:25.932Z,10.94
2023-03-21T22:23:29.000Z,10.94
2023-03-21T22:25:30.622Z,10.94
2023-03-21T22:27:34.221Z,10.93
2023-03-21T22:29:35.961Z,10.93
2023-03-21T22:31:38.124Z,10.93
2023-03-21T22:33:40.036Z,10.92
2023-03-21T22:35:41.956Z,10.92
2023-03-21T22:37:43.849Z,10.91
2023-03-21T22:39:45.671Z,10.90
2023-03-21T22:41:47.291Z,10.90
2023-03-21T22:43:50.570Z,10.88
2023-03-21T22:45:54.078Z,10.88
2023-03-21T22:47:56.471Z,10.88
2023-03-21T22:49:58.639Z,10.87
2023-03-21T22:52:01.171Z,10.87
2023-03-21T22:54:02.816Z,10.86
2023-03-21T22:56:06.296Z,10.85
2023-03-21T22:58:08.231Z,10.85
2023-03-21T23:00:13.066Z,10.84
2023-03-21T23:02:15.399Z,10.83
2023-03-21T23:04:17.804Z,10.81
2023-03-21T23:06:19.670Z,10.80
2023-03-21T23:08:21.796Z,10.79
2023-03-21T23:10:23.419Z,10.77
2023-03-21T23:12:25.011Z,10.74
2023-03-21T23:14:26.946Z,10.73
2023-03-21T23:16:30.546Z,10.72
2023-03-21T23:18:32.760Z,10.71
2023-03-21T23:20:34.604Z,10.70
2023-03-21T23:22:36.830Z,10.69
2023-03-21T23:24:40.237Z,10.68
2023-03-21T23:26:42.130Z,10.68
2023-03-21T23:28:44.478Z,10.66
2023-03-21T23:30:46.842Z,10.65
2023-03-21T23:32:49.998Z,10.64
2023-03-21T23:34:51.723Z,10.63
2023-03-21T23:36:53.309Z,10.62
2023-03-21T23:38:55.161Z,10.61
2023-03-21T23:40:57.526Z,10.61
2023-03-21T23:43:00.789Z,10.59
2023-03-21T23:45:02.462Z,10.58
2023-03-21T23:47:04.435Z,10.57
2023-03-21T23:49:07.515Z,10.55
2023-03-21T23:51:09.484Z,10.54
2023-03-21T23:53:12.532Z,10.54
2023-03-21T23:55:14.308Z,10.52
2023-03-21T23:57:16.059Z,10.50
2023-03-21T23:59:19.162Z,10.47
